Time;durP1;ratioP1;P1;durP2;ratioP2;P2;SDS_P1;SDS_P2;PMS_P1;PMS_P2;Temp;Humidity;BMP_temperature;BMP_pressure;BME280_temperature;BME280_humidity;BME280_pressure;Samples;Min_cycle;Max_cycle;Signal;HPM_P1;HPM_P2
2021/04/27 00:00:59;;;;;;;;;;;18.00;46.80;;;;;;5035486;28;19924;-69
2021/04/27 00:03:24;;;;;;;;;;;18.00;46.80;;;;;;5035661;28;19921;-69
2021/04/27 00:05:50;;;;;;;;;;;18.00;46.90;;;;;;5030888;28;20399;-70
2021/04/27 00:08:15;;;;;;;;;;;18.00;46.90;;;;;;5005609;28;19917;-69
2021/04/27 00:10:41;;;;;;;;;;;18.00;46.80;;;;;;5033550;28;19932;-70
2021/04/27 00:13:07;;;;;;;;;;;18.00;46.80;;;;;;5031363;28;19967;-70
2021/04/27 00:15:32;;;;;;;;;;;18.00;46.80;;;;;;5037155;28;19987;-70
2021/04/27 00:17:58;;;;;;;;;;;18.00;46.80;;;;;;5037270;28;19949;-69
2021/04/27 00:20:24;;;;;;;;;;;18.00;46.80;;;;;;5037734;28;19927;-69
2021/04/27 00:22:50;;;;;;;;;;;18.00;46.80;;;;;;5041740;28;20407;-70
2021/04/27 00:25:16;;;;;;;;;;;18.00;46.80;;;;;;5039899;28;20414;-70
2021/04/27 00:27:43;;;;;;;;;;;18.00;46.70;;;;;;5038782;28;19925;-70
2021/04/27 00:30:09;;;;;;;;;;;18.00;46.60;;;;;;5039133;28;19917;-70
2021/04/27 00:32:34;;;;;;;;;;;18.00;46.70;;;;;;5032664;28;20494;-70
2021/04/27 00:35:00;;;;;;;;;;;18.00;46.60;;;;;;5027278;28;19921;-70
2021/04/27 00:37:26;;;;;;;;;;;18.00;46.60;;;;;;5045083;28;19920;-69
2021/04/27 00:39:51;;;;;;;;;;;18.00;46.60;;;;;;5041815;28;20383;-69
2021/04/27 00:42:16;;;;;;;;;;;18.00;46.60;;;;;;5046254;28;19921;-69
2021/04/27 00:44:42;;;;;;;;;;;18.00;46.60;;;;;;5046387;28;19925;-70
2021/04/27 00:47:07;;;;;;;;;;;18.00;46.60;;;;;;5040957;28;19917;-69
2021/04/27 00:49:33;;;;;;;;;;;18.00;46.60;;;;;;5033070;28;19943;-70
2021/04/27 00:51:58;;;;;;;;;;;18.00;46.50;;;;;;5037659;28;19921;-70
2021/04/27 00:54:24;;;;;;;;;;;17.90;46.50;;;;;;5041359;28;19921;-69
2021/04/27 00:56:49;;;;;;;;;;;18.00;46.50;;;;;;5025720;28;19925;-70
2021/04/27 00:59:15;;;;;;;;;;;17.90;46.40;;;;;;5040197;28;20444;-69
2021/04/27 01:01:40;;;;;;;;;;;17.90;46.40;;;;;;5045258;28;19917;-70
2021/04/27 01:04:05;;;;;;;;;;;17.90;46.30;;;;;;5039432;28;19917;-70
2021/04/27 01:06:31;;;;;;;;;;;18.00;46.40;;;;;;5037254;28;19921;-70
2021/04/27 01:09:05;;;;;;;;;;;18.00;46.40;;;;;;5044606;28;19935;-69
2021/04/27 01:11:40;;;;;;;;;;;17.90;46.30;;;;;;5027630;28;19917;-69
2021/04/27 01:14:08;;;;;;;;;;;17.90;46.30;;;;;;5009344;28;19928;-70
2021/04/27 01:16:33;;;;;;;;;;;18.00;46.30;;;;;;5024820;28;19957;-70
2021/04/27 01:18:59;;;;;;;;;;;18.00;46.30;;;;;;5028255;28;19978;-70
2021/04/27 01:21:24;;;;;;;;;;;17.90;46.20;;;;;;5027981;28;19959;-70
2021/04/27 01:23:58;;;;;;;;;;;18.00;46.20;;;;;;5042995;28;19921;-70
2021/04/27 01:26:27;;;;;;;;;;;17.90;46.20;;;;;;5024684;28;19917;-69
2021/04/27 01:28:52;;;;;;;;;;;17.90;46.10;;;;;;5018860;28;19928;-69
2021/04/27 01:31:18;;;;;;;;;;;18.00;46.10;;;;;;5030035;28;20407;-68
2021/04/27 01:33:43;;;;;;;;;;;18.00;46.20;;;;;;5038841;28;19929;-68
2021/04/27 01:36:09;;;;;;;;;;;17.90;46.20;;;;;;5027244;28;19927;-69
2021/04/27 01:38:34;;;;;;;;;;;17.90;46.20;;;;;;5038964;28;19925;-68
2021/04/27 01:41:00;;;;;;;;;;;17.90;46.10;;;;;;5041630;28;19917;-68
2021/04/27 01:43:25;;;;;;;;;;;17.90;46.10;;;;;;5026940;28;19917;-67
2021/04/27 01:45:52;;;;;;;;;;;17.90;46.00;;;;;;5020656;28;20987;-66
2021/04/27 01:48:17;;;;;;;;;;;17.90;46.00;;;;;;5020594;28;19924;-70
2021/04/27 01:50:43;;;;;;;;;;;17.90;46.00;;;;;;5023851;28;19921;-70
2021/04/27 01:53:12;;;;;;;;;;;17.90;45.90;;;;;;5032563;28;19917;-70
2021/04/27 01:55:37;;;;;;;;;;;17.90;45.90;;;;;;5026163;28;19935;-67
2021/04/27 01:58:03;;;;;;;;;;;18.00;45.80;;;;;;5044773;28;19921;-70
2021/04/27 02:00:28;;;;;;;;;;;17.90;45.90;;;;;;5041403;28;19921;-65
2021/04/27 02:02:54;;;;;;;;;;;17.90;45.80;;;;;;5040232;28;19924;-68
2021/04/27 02:05:20;;;;;;;;;;;17.90;45.80;;;;;;5035419;28;19927;-69
2021/04/27 02:07:45;;;;;;;;;;;17.90;45.80;;;;;;5041342;28;19927;-69
2021/04/27 02:10:11;;;;;;;;;;;17.90;45.80;;;;;;5043748;28;20445;-70
2021/04/27 02:12:38;;;;;;;;;;;17.90;45.70;;;;;;5037830;28;19963;-68
2021/04/27 02:15:04;;;;;;;;;;;18.00;45.70;;;;;;5037252;28;19932;-68
2021/04/27 02:17:31;;;;;;;;;;;17.90;45.60;;;;;;5024202;28;20747;-70
2021/04/27 02:19:56;;;;;;;;;;;17.90;45.60;;;;;;5039758;28;20535;-70
2021/04/27 02:22:23;;;;;;;;;;;17.90;45.60;;;;;;5024336;28;19917;-70
2021/04/27 02:24:48;;;;;;;;;;;17.90;45.70;;;;;;5026381;28;19924;-68
2021/04/27 02:27:14;;;;;;;;;;;17.90;45.60;;;;;;5025811;28;19917;-66
2021/04/27 02:29:39;;;;;;;;;;;17.90;45.60;;;;;;5036676;28;19949;-69
2021/04/27 02:32:04;;;;;;;;;;;17.90;45.60;;;;;;5024995;28;19935;-70
2021/04/27 02:34:30;;;;;;;;;;;17.90;45.60;;;;;;5029094;28;19944;-70
2021/04/27 02:36:55;;;;;;;;;;;17.90;45.60;;;;;;5038907;28;19916;-68
2021/04/27 02:39:21;;;;;;;;;;;17.90;45.50;;;;;;5036052;28;20341;-70
2021/04/27 02:41:47;;;;;;;;;;;17.90;45.40;;;;;;5039395;28;19931;-71
2021/04/27 02:44:12;;;;;;;;;;;17.90;45.50;;;;;;5041964;28;20341;-70
2021/04/27 02:46:38;;;;;;;;;;;17.90;45.50;;;;;;5037638;28;19936;-69
2021/04/27 02:49:03;;;;;;;;;;;17.90;45.40;;;;;;5043911;28;19920;-69
2021/04/27 02:51:29;;;;;;;;;;;17.90;45.40;;;;;;5034522;28;20294;-70
2021/04/27 02:53:54;;;;;;;;;;;17.90;45.50;;;;;;5026428;28;20297;-67
2021/04/27 02:56:20;;;;;;;;;;;17.90;45.50;;;;;;5035152;28;19917;-68
2021/04/27 02:58:46;;;;;;;;;;;17.90;45.40;;;;;;5034752;28;20431;-68
2021/04/27 03:01:13;;;;;;;;;;;17.90;45.50;;;;;;5031532;28;19917;-68
2021/04/27 03:03:38;;;;;;;;;;;17.90;45.50;;;;;;5034608;28;19921;-67
2021/04/27 03:06:04;;;;;;;;;;;17.90;45.50;;;;;;5037362;28;19917;-69
2021/04/27 03:08:29;;;;;;;;;;;17.80;45.40;;;;;;5041096;28;19929;-69
2021/04/27 03:10:55;;;;;;;;;;;17.90;46.20;;;;;;5031175;28;19925;-69
2021/04/27 03:13:20;;;;;;;;;;;17.80;45.50;;;;;;5030151;28;19929;-69
2021/04/27 03:15:46;;;;;;;;;;;17.80;45.50;;;;;;5042696;28;19936;-69
2021/04/27 03:18:11;;;;;;;;;;;17.80;45.50;;;;;;5042538;28;19920;-69
2021/04/27 03:20:37;;;;;;;;;;;17.80;45.40;;;;;;5029136;28;19917;-69
2021/04/27 03:23:02;;;;;;;;;;;17.80;45.50;;;;;;5027483;28;20005;-69
2021/04/27 03:25:28;;;;;;;;;;;17.80;45.50;;;;;;5034620;28;19921;-70
2021/04/27 03:27:53;;;;;;;;;;;17.80;45.50;;;;;;5033835;28;19966;-69
2021/04/27 03:30:19;;;;;;;;;;;17.80;45.60;;;;;;5034539;28;19917;-69
2021/04/27 03:32:44;;;;;;;;;;;17.80;45.60;;;;;;5023765;28;20311;-66
2021/04/27 03:35:10;;;;;;;;;;;17.80;45.50;;;;;;5033715;28;19921;-67
2021/04/27 03:37:36;;;;;;;;;;;17.80;45.50;;;;;;5035108;28;19920;-68
2021/04/27 03:40:02;;;;;;;;;;;17.70;45.50;;;;;;5036767;28;19918;-70
2021/04/27 03:42:27;;;;;;;;;;;17.80;45.50;;;;;;5039899;28;19917;-69
2021/04/27 03:44:53;;;;;;;;;;;17.80;45.50;;;;;;5039814;28;19916;-67
2021/04/27 03:47:18;;;;;;;;;;;17.80;45.50;;;;;;5035538;28;20257;-68
2021/04/27 03:49:43;;;;;;;;;;;17.70;45.50;;;;;;5022469;28;19935;-69
2021/04/27 03:52:09;;;;;;;;;;;17.70;45.50;;;;;;5039749;28;19924;-69
2021/04/27 03:54:34;;;;;;;;;;;17.80;45.50;;;;;;5035723;28;20276;-68
2021/04/27 03:57:01;;;;;;;;;;;17.80;45.50;;;;;;5039615;28;19917;-69
2021/04/27 03:59:26;;;;;;;;;;;17.70;45.40;;;;;;5043706;28;19924;-69
2021/04/27 04:01:52;;;;;;;;;;;17.80;45.50;;;;;;5036583;28;19917;-69
2021/04/27 04:04:17;;;;;;;;;;;17.70;45.40;;;;;;5034597;28;19935;-69
2021/04/27 04:06:43;;;;;;;;;;;17.80;45.40;;;;;;5023999;28;19931;-69
2021/04/27 04:09:08;;;;;;;;;;;17.70;45.40;;;;;;5036441;28;19917;-69
2021/04/27 04:11:34;;;;;;;;;;;17.70;45.40;;;;;;5033428;28;19926;-70
2021/04/27 04:13:59;;;;;;;;;;;17.80;45.40;;;;;;5031105;28;19929;-69
2021/04/27 04:16:25;;;;;;;;;;;17.80;45.40;;;;;;5029603;28;19916;-69
2021/04/27 04:18:50;;;;;;;;;;;17.70;45.40;;;;;;5037756;28;20375;-68
2021/04/27 04:21:15;;;;;;;;;;;17.80;45.30;;;;;;5036024;28;19975;-68
2021/04/27 04:23:41;;;;;;;;;;;17.80;45.30;;;;;;5025374;28;19924;-69
2021/04/27 04:26:07;;;;;;;;;;;17.80;45.20;;;;;;5036832;28;19925;-70
2021/04/27 04:28:32;;;;;;;;;;;17.80;45.20;;;;;;5026002;28;19984;-69
2021/04/27 04:30:58;;;;;;;;;;;17.80;45.30;;;;;;5028914;28;20486;-66
2021/04/27 04:33:23;;;;;;;;;;;17.80;45.10;;;;;;5033903;28;19956;-69
2021/04/27 04:35:49;;;;;;;;;;;17.80;45.20;;;;;;5031940;28;19921;-67
2021/04/27 04:38:17;;;;;;;;;;;17.80;45.70;;;;;;5037683;28;19917;-68
2021/04/27 04:40:43;;;;;;;;;;;17.70;46.00;;;;;;5034860;28;19921;-66
2021/04/27 04:43:08;;;;;;;;;;;17.70;46.30;;;;;;5041526;28;19916;-67
2021/04/27 04:45:33;;;;;;;;;;;17.70;46.50;;;;;;5035062;28;19929;-68
2021/04/27 04:47:59;;;;;;;;;;;17.60;46.80;;;;;;5042398;28;19933;-67
2021/04/27 04:50:24;;;;;;;;;;;17.60;47.10;;;;;;5044674;28;19923;-66
2021/04/27 04:52:50;;;;;;;;;;;17.60;47.30;;;;;;5042587;28;19929;-66
2021/04/27 04:55:15;;;;;;;;;;;17.50;47.50;;;;;;5032126;28;19932;-67
2021/04/27 04:57:41;;;;;;;;;;;17.50;47.70;;;;;;5045541;28;20011;-66
2021/04/27 05:00:08;;;;;;;;;;;17.60;47.80;;;;;;5046469;28;19925;-66
2021/04/27 05:02:33;;;;;;;;;;;17.60;48.00;;;;;;5027832;28;20012;-66
2021/04/27 05:04:58;;;;;;;;;;;17.60;48.10;;;;;;5030465;28;19917;-66
2021/04/27 05:07:26;;;;;;;;;;;17.60;48.00;;;;;;5036653;28;19917;-67
2021/04/27 05:09:51;;;;;;;;;;;17.60;48.20;;;;;;5042214;28;19923;-67
2021/04/27 05:12:17;;;;;;;;;;;17.60;48.20;;;;;;5040291;28;19925;-66
2021/04/27 05:14:42;;;;;;;;;;;17.70;48.40;;;;;;5039093;28;19920;-66
2021/04/27 05:17:08;;;;;;;;;;;17.70;48.80;;;;;;5040748;28;19999;-65
2021/04/27 05:19:34;;;;;;;;;;;17.70;49.10;;;;;;5036486;28;20373;-65
2021/04/27 05:22:03;;;;;;;;;;;17.70;49.20;;;;;;5033519;28;19967;-67
2021/04/27 05:24:29;;;;;;;;;;;17.70;49.20;;;;;;5044661;28;19921;-68
2021/04/27 05:26:54;;;;;;;;;;;17.70;49.30;;;;;;5044066;28;19916;-69
2021/04/27 05:29:20;;;;;;;;;;;17.80;49.40;;;;;;5025359;28;19923;-68
2021/04/27 05:31:47;;;;;;;;;;;17.80;49.50;;;;;;5040695;28;20697;-68
2021/04/27 05:34:13;;;;;;;;;;;17.80;49.60;;;;;;5036446;28;19923;-67
2021/04/27 05:36:38;;;;;;;;;;;17.80;49.60;;;;;;5047414;28;19913;-68
2021/04/27 05:39:04;;;;;;;;;;;17.80;49.50;;;;;;5047152;28;19966;-67
2021/04/27 05:41:29;;;;;;;;;;;17.80;49.60;;;;;;5047129;28;19928;-68
2021/04/27 05:43:55;;;;;;;;;;;17.80;49.50;;;;;;5041258;28;20611;-67
2021/04/27 05:46:20;;;;;;;;;;;17.80;49.50;;;;;;5032031;28;19913;-66
2021/04/27 05:48:46;;;;;;;;;;;17.80;49.70;;;;;;5034737;28;19917;-67
2021/04/27 05:51:11;;;;;;;;;;;17.80;50.10;;;;;;5046135;28;19920;-67
2021/04/27 05:53:36;;;;;;;;;;;17.80;50.00;;;;;;5035128;28;19964;-66
2021/04/27 05:56:02;;;;;;;;;;;17.90;49.70;;;;;;5049309;28;20442;-68
2021/04/27 05:58:27;;;;;;;;;;;17.90;49.40;;;;;;5048269;28;19917;-68
2021/04/27 06:00:53;;;;;;;;;;;17.90;48.80;;;;;;5038717;28;19921;-67
2021/04/27 06:03:18;;;;;;;;;;;17.90;48.30;;;;;;5026599;28;19921;-67
2021/04/27 06:05:44;;;;;;;;;;;17.90;47.90;;;;;;5034949;28;20501;-67
2021/04/27 06:08:09;;;;;;;;;;;17.90;47.50;;;;;;5034445;28;19920;-66
2021/04/27 06:10:35;;;;;;;;;;;17.90;47.40;;;;;;5026545;28;19917;-67
2021/04/27 06:13:00;;;;;;;;;;;18.00;47.00;;;;;;5029330;28;19921;-66
2021/04/27 06:15:25;;;;;;;;;;;18.00;46.60;;;;;;5028741;28;20296;-69
2021/04/27 06:17:51;;;;;;;;;;;18.00;46.60;;;;;;5027555;28;19936;-69
2021/04/27 06:20:16;;;;;;;;;;;18.00;46.30;;;;;;5034334;28;19913;-69
2021/04/27 06:22:42;;;;;;;;;;;18.00;46.20;;;;;;5034113;28;19920;-68
2021/04/27 06:25:08;;;;;;;;;;;18.10;46.20;;;;;;5024160;28;19917;-67
2021/04/27 06:27:33;;;;;;;;;;;18.10;45.90;;;;;;5040710;28;20418;-68
2021/04/27 06:30:00;;;;;;;;;;;18.10;45.70;;;;;;5027646;28;19914;-66
2021/04/27 06:32:26;;;;;;;;;;;18.10;45.20;;;;;;5005537;28;20489;-67
2021/04/27 06:34:51;;;;;;;;;;;18.10;44.80;;;;;;5029476;28;19921;-68
2021/04/27 06:37:17;;;;;;;;;;;18.10;44.40;;;;;;5030462;28;19919;-65
2021/04/27 06:39:42;;;;;;;;;;;18.10;44.00;;;;;;5029160;28;19925;-66
2021/04/27 06:42:07;;;;;;;;;;;18.10;43.60;;;;;;5033542;28;20483;-66
2021/04/27 06:44:33;;;;;;;;;;;18.10;43.70;;;;;;5033409;28;19913;-68
2021/04/27 06:46:59;;;;;;;;;;;18.20;43.80;;;;;;5037505;28;20543;-67
2021/04/27 06:49:24;;;;;;;;;;;18.20;43.60;;;;;;5028752;28;20337;-68
2021/04/27 06:51:50;;;;;;;;;;;18.20;42.90;;;;;;5035702;28;19917;-66
2021/04/27 06:54:15;;;;;;;;;;;18.20;42.50;;;;;;5043649;28;20795;-66
2021/04/27 06:56:41;;;;;;;;;;;18.20;42.20;;;;;;5044554;28;19920;-65
2021/04/27 06:59:09;;;;;;;;;;;18.20;42.70;;;;;;5044359;28;19913;-67
2021/04/27 07:01:34;;;;;;;;;;;18.10;43.60;;;;;;5043730;28;19943;-66
2021/04/27 07:04:00;;;;;;;;;;;18.10;43.60;;;;;;5044600;28;19931;-65
2021/04/27 07:06:25;;;;;;;;;;;18.10;43.80;;;;;;5030659;28;20376;-66
2021/04/27 07:08:51;;;;;;;;;;;18.10;43.90;;;;;;5036619;28;19943;-66
2021/04/27 07:11:16;;;;;;;;;;;18.10;44.00;;;;;;5044166;28;19917;-69
2021/04/27 07:13:42;;;;;;;;;;;18.10;44.20;;;;;;5043620;28;20463;-66
2021/04/27 07:16:07;;;;;;;;;;;18.10;44.30;;;;;;5025976;28;19916;-66
2021/04/27 07:18:32;;;;;;;;;;;18.10;44.40;;;;;;5043559;28;19917;-66
2021/04/27 07:20:58;;;;;;;;;;;18.10;44.60;;;;;;5043425;28;19913;-67
2021/04/27 07:23:24;;;;;;;;;;;18.10;44.90;;;;;;5042276;28;20217;-66
2021/04/27 07:25:49;;;;;;;;;;;18.00;45.00;;;;;;5043655;28;19990;-65
2021/04/27 07:28:14;;;;;;;;;;;18.00;45.10;;;;;;5041043;28;19921;-65
2021/04/27 07:30:40;;;;;;;;;;;18.10;45.20;;;;;;5037022;28;19920;-66
2021/04/27 07:33:06;;;;;;;;;;;18.10;45.20;;;;;;5026193;28;19963;-66
2021/04/27 07:35:31;;;;;;;;;;;18.00;45.30;;;;;;5024511;28;19924;-66
2021/04/27 07:38:00;;;;;;;;;;;18.10;45.50;;;;;;5042661;28;19917;-66
2021/04/27 07:40:27;;;;;;;;;;;18.10;45.60;;;;;;5044074;28;19913;-66
2021/04/27 07:42:52;;;;;;;;;;;18.00;45.70;;;;;;5042559;28;19913;-66
2021/04/27 07:45:17;;;;;;;;;;;18.00;45.80;;;;;;5042369;28;20343;-66
2021/04/27 07:47:43;;;;;;;;;;;18.00;45.80;;;;;;5043107;28;19927;-66
2021/04/27 07:50:09;;;;;;;;;;;18.10;45.90;;;;;;5043340;28;19913;-66
2021/04/27 07:52:34;;;;;;;;;;;18.10;46.00;;;;;;5026576;28;20652;-66
2021/04/27 07:55:00;;;;;;;;;;;18.10;46.20;;;;;;5023236;28;20399;-65
2021/04/27 07:57:26;;;;;;;;;;;18.10;46.20;;;;;;5027976;28;20287;-66
2021/04/27 07:59:51;;;;;;;;;;;18.10;46.20;;;;;;5043086;28;19920;-66
2021/04/27 08:02:17;;;;;;;;;;;18.10;46.20;;;;;;5042823;28;19912;-66
2021/04/27 08:04:42;;;;;;;;;;;18.00;46.20;;;;;;5024903;28;19952;-66
2021/04/27 08:07:08;;;;;;;;;;;18.00;46.30;;;;;;5025216;28;19923;-66
2021/04/27 08:09:33;;;;;;;;;;;18.00;46.40;;;;;;5038293;28;20376;-66
2021/04/27 08:11:59;;;;;;;;;;;18.00;46.50;;;;;;5037784;28;19921;-66
2021/04/27 08:14:24;;;;;;;;;;;18.00;46.50;;;;;;5025886;28;20096;-66
2021/04/27 08:16:50;;;;;;;;;;;18.00;46.50;;;;;;5042517;28;19916;-66
2021/04/27 08:19:15;;;;;;;;;;;18.00;46.60;;;;;;5042677;28;20475;-66
2021/04/27 08:21:40;;;;;;;;;;;18.00;46.60;;;;;;5024552;28;19920;-67
2021/04/27 08:24:06;;;;;;;;;;;18.00;46.60;;;;;;5044047;28;19917;-66
2021/04/27 08:26:32;;;;;;;;;;;18.00;46.70;;;;;;5040480;28;20326;-65
2021/04/27 08:28:57;;;;;;;;;;;18.00;46.80;;;;;;5023481;28;19921;-67
2021/04/27 08:31:22;;;;;;;;;;;18.00;46.80;;;;;;5023109;28;19921;-67
2021/04/27 08:33:48;;;;;;;;;;;18.00;46.80;;;;;;5021437;28;19924;-66
2021/04/27 08:36:13;;;;;;;;;;;18.00;46.90;;;;;;5024992;28;19917;-66
2021/04/27 08:38:39;;;;;;;;;;;18.00;46.90;;;;;;5032432;28;19913;-66
2021/04/27 08:41:04;;;;;;;;;;;18.00;47.00;;;;;;5035385;28;19916;-66
2021/04/27 08:43:30;;;;;;;;;;;18.00;47.00;;;;;;5042473;28;20379;-67
2021/04/27 08:45:55;;;;;;;;;;;18.00;47.00;;;;;;5021415;28;20032;-66
2021/04/27 08:48:22;;;;;;;;;;;18.00;47.00;;;;;;5038245;28;20368;-66
2021/04/27 08:50:48;;;;;;;;;;;18.00;47.10;;;;;;5035369;28;19913;-66
2021/04/27 08:53:13;;;;;;;;;;;18.00;47.10;;;;;;5025492;28;19984;-67
2021/04/27 08:55:38;;;;;;;;;;;18.00;47.20;;;;;;5040995;28;20495;-63
2021/04/27 08:58:05;;;;;;;;;;;18.00;47.20;;;;;;5037386;28;19917;-66
2021/04/27 09:00:30;;;;;;;;;;;18.00;47.20;;;;;;5030549;28;20622;-65
2021/04/27 09:02:56;;;;;;;;;;;18.00;47.80;;;;;;5035844;28;19917;-67
2021/04/27 09:05:23;;;;;;;;;;;18.00;47.20;;;;;;5025061;28;19917;-66
2021/04/27 09:07:48;;;;;;;;;;;18.00;47.20;;;;;;5025853;28;19914;-67
2021/04/27 09:10:15;;;;;;;;;;;18.00;47.20;;;;;;5026151;28;20391;-67
2021/04/27 09:12:45;;;;;;;;;;;18.00;47.30;;;;;;5034388;28;19920;-66
2021/04/27 09:15:11;;;;;;;;;;;18.00;47.30;;;;;;5028796;28;19921;-67
2021/04/27 09:17:36;;;;;;;;;;;18.00;47.30;;;;;;5028424;28;19924;-65
2021/04/27 09:20:02;;;;;;;;;;;18.00;47.30;;;;;;5026463;28;19921;-67
2021/04/27 09:22:34;;;;;;;;;;;18.00;47.30;;;;;;5035722;28;19919;-67
2021/04/27 09:25:06;;;;;;;;;;;18.00;47.40;;;;;;5045743;28;19971;-67
2021/04/27 09:27:36;;;;;;;;;;;18.00;47.40;;;;;;5045735;28;20415;-66
2021/04/27 09:30:20;;;;;;;;;;;17.90;47.40;;;;;;5045925;28;20383;-66
2021/04/27 09:32:52;;;;;;;;;;;17.90;47.50;;;;;;5045300;28;19933;-66
2021/04/27 09:35:24;;;;;;;;;;;17.90;47.50;;;;;;5045550;28;19925;-66
2021/04/27 09:38:05;;;;;;;;;;;17.90;47.50;;;;;;5045727;28;20438;-66
2021/04/27 09:40:30;;;;;;;;;;;18.00;47.50;;;;;;5024153;28;19913;-64
2021/04/27 09:43:15;;;;;;;;;;;17.90;47.50;;;;;;5024938;28;19986;-66
2021/04/27 09:45:40;;;;;;;;;;;17.90;47.50;;;;;;5023489;28;20780;-66
2021/04/27 09:48:06;;;;;;;;;;;17.90;47.50;;;;;;5026082;28;19917;-67
2021/04/27 09:50:32;;;;;;;;;;;17.90;47.50;;;;;;5025825;28;19995;-66
2021/04/27 09:52:57;;;;;;;;;;;17.90;47.60;;;;;;5025322;28;20392;-67
2021/04/27 09:55:23;;;;;;;;;;;17.90;47.60;;;;;;5025192;28;19924;-67
2021/04/27 09:57:52;;;;;;;;;;;17.90;47.70;;;;;;5025262;28;19943;-67
2021/04/27 10:00:21;;;;;;;;;;;17.90;47.70;;;;;;5024588;28;19913;-67
2021/04/27 10:02:46;;;;;;;;;;;17.90;47.70;;;;;;5033966;28;20392;-67
2021/04/27 10:05:12;;;;;;;;;;;17.90;47.70;;;;;;5025676;28;19920;-66
2021/04/27 10:07:38;;;;;;;;;;;17.90;47.70;;;;;;5025229;28;19999;-66
2021/04/27 10:10:04;;;;;;;;;;;17.90;47.80;;;;;;5036234;28;19924;-65
2021/04/27 10:12:29;;;;;;;;;;;17.90;47.70;;;;;;5026726;28;20012;-66
2021/04/27 10:14:55;;;;;;;;;;;17.90;47.80;;;;;;5045039;28;19917;-67
2021/04/27 10:17:23;;;;;;;;;;;17.90;47.80;;;;;;5026799;28;19912;-67
2021/04/27 10:19:49;;;;;;;;;;;17.90;47.90;;;;;;5027368;28;19913;-67
2021/04/27 10:22:15;;;;;;;;;;;17.90;47.90;;;;;;5023053;28;19924;-67
2021/04/27 10:24:41;;;;;;;;;;;17.90;48.00;;;;;;5041853;28;19921;-66
2021/04/27 10:27:06;;;;;;;;;;;17.90;48.00;;;;;;5044985;28;19923;-67
2021/04/27 10:29:31;;;;;;;;;;;17.90;48.00;;;;;;5044760;28;20415;-67
2021/04/27 10:32:16;;;;;;;;;;;17.90;48.00;;;;;;5027148;28;19939;-66
2021/04/27 10:34:57;;;;;;;;;;;17.90;47.90;;;;;;5032310;28;19924;-66
2021/04/27 10:37:23;;;;;;;;;;;17.90;47.90;;;;;;5028818;28;19913;-67
2021/04/27 10:39:49;;;;;;;;;;;17.90;47.90;;;;;;5025016;28;20448;-65
2021/04/27 10:42:15;;;;;;;;;;;17.90;47.90;;;;;;5023349;28;19924;-65
2021/04/27 10:44:51;;;;;;;;;;;17.90;47.90;;;;;;5025107;28;19917;-65
2021/04/27 10:47:17;;;;;;;;;;;17.90;48.00;;;;;;5024128;28;19921;-66
2021/04/27 10:49:43;;;;;;;;;;;17.90;48.10;;;;;;5025179;28;19985;-66
2021/04/27 10:52:24;;;;;;;;;;;17.90;48.20;;;;;;5023781;28;19924;-65
2021/04/27 10:54:49;;;;;;;;;;;17.90;48.00;;;;;;5029512;28;20398;-67
2021/04/27 10:57:15;;;;;;;;;;;17.90;48.00;;;;;;5025765;28;19913;-66
2021/04/27 10:59:50;;;;;;;;;;;17.90;48.10;;;;;;5026611;28;20435;-65
2021/04/27 11:02:21;;;;;;;;;;;17.90;48.10;;;;;;5043970;28;19940;-65
2021/04/27 11:04:47;;;;;;;;;;;17.90;48.10;;;;;;5031221;28;19975;-66
2021/04/27 11:07:15;;;;;;;;;;;17.90;48.10;;;;;;5039723;28;19967;-66
2021/04/27 11:09:41;;;;;;;;;;;17.90;48.10;;;;;;5026619;28;19921;-65
2021/04/27 11:12:29;;;;;;;;;;;17.90;48.10;;;;;;5006832;28;19975;-66
2021/04/27 11:14:55;;;;;;;;;;;17.90;48.10;;;;;;5039624;28;19959;-66
2021/04/27 11:17:46;;;;;;;;;;;17.90;48.10;;;;;;5025414;28;19921;-66
2021/04/27 11:20:12;;;;;;;;;;;17.90;48.00;;;;;;5009349;28;20486;-66
2021/04/27 11:22:38;;;;;;;;;;;18.00;48.10;;;;;;5025210;28;19912;-66
2021/04/27 11:25:05;;;;;;;;;;;17.90;48.10;;;;;;5025775;28;20070;-66
2021/04/27 11:27:34;;;;;;;;;;;17.90;48.10;;;;;;5022497;28;20384;-66
2021/04/27 11:30:02;;;;;;;;;;;17.90;48.10;;;;;;5024194;28;20376;-66
2021/04/27 11:32:30;;;;;;;;;;;18.00;48.10;;;;;;5033710;28;20303;-67
2021/04/27 11:34:55;;;;;;;;;;;17.90;48.10;;;;;;5025665;28;19917;-65
2021/04/27 11:37:33;;;;;;;;;;;17.90;48.10;;;;;;5035933;28;19928;-66
2021/04/27 11:39:59;;;;;;;;;;;17.90;48.20;;;;;;5023640;28;19921;-66
2021/04/27 11:42:29;;;;;;;;;;;17.90;48.20;;;;;;5023239;28;19990;-65
2021/04/27 11:44:56;;;;;;;;;;;17.90;48.20;;;;;;5023743;28;19968;-66
2021/04/27 11:47:21;;;;;;;;;;;18.00;48.20;;;;;;5021536;28;19924;-66
2021/04/27 11:49:50;;;;;;;;;;;18.00;48.30;;;;;;5021583;28;19917;-66
2021/04/27 11:52:35;;;;;;;;;;;17.90;48.20;;;;;;5027877;28;20303;-66
2021/04/27 11:55:00;;;;;;;;;;;18.00;48.30;;;;;;5031946;28;20488;-66
2021/04/27 11:57:25;;;;;;;;;;;17.90;48.30;;;;;;5022875;28;19939;-66
2021/04/27 11:59:57;;;;;;;;;;;17.90;48.40;;;;;;5023076;28;19913;-66
2021/04/27 12:02:22;;;;;;;;;;;17.90;48.30;;;;;;5039124;28;19944;-66
2021/04/27 12:04:48;;;;;;;;;;;18.00;48.40;;;;;;5043302;28;19924;-66
2021/04/27 12:07:13;;;;;;;;;;;17.90;48.40;;;;;;5035284;28;19913;-67
2021/04/27 12:09:42;;;;;;;;;;;18.00;48.50;;;;;;5022887;28;19924;-66
2021/04/27 12:12:08;;;;;;;;;;;18.00;48.50;;;;;;5032370;28;19920;-66
2021/04/27 12:14:34;;;;;;;;;;;17.90;48.50;;;;;;5024957;28;19924;-66
2021/04/27 12:16:59;;;;;;;;;;;18.00;48.40;;;;;;5023937;28;19913;-67
2021/04/27 12:19:27;;;;;;;;;;;18.00;48.60;;;;;;5041792;28;19913;-66
2021/04/27 12:22:10;;;;;;;;;;;17.90;48.50;;;;;;5045020;28;20288;-66
2021/04/27 12:24:38;;;;;;;;;;;17.90;48.60;;;;;;5013073;28;19913;-66
2021/04/27 12:27:10;;;;;;;;;;;17.90;48.60;;;;;;5029742;28;19917;-66
2021/04/27 12:29:37;;;;;;;;;;;17.90;48.60;;;;;;5029868;28;19913;-66
2021/04/27 12:32:06;;;;;;;;;;;17.90;48.60;;;;;;5038562;28;19943;-67
2021/04/27 12:34:32;;;;;;;;;;;17.90;48.70;;;;;;5028427;28;19999;-67
2021/04/27 12:36:57;;;;;;;;;;;17.90;48.80;;;;;;5030228;28;20304;-67
2021/04/27 12:39:23;;;;;;;;;;;17.90;48.80;;;;;;5029940;28;19920;-66
2021/04/27 12:41:49;;;;;;;;;;;17.90;48.80;;;;;;5028623;28;19928;-67
2021/04/27 12:44:27;;;;;;;;;;;17.90;48.80;;;;;;5031180;28;19913;-65
2021/04/27 12:46:53;;;;;;;;;;;17.90;48.70;;;;;;5045591;28;19963;-66
2021/04/27 12:49:25;;;;;;;;;;;17.90;48.80;;;;;;5031818;28;19916;-67
2021/04/27 12:51:54;;;;;;;;;;;17.90;48.90;;;;;;5050270;28;19912;-66
2021/04/27 12:54:27;;;;;;;;;;;17.90;48.90;;;;;;5046066;28;20388;-66
2021/04/27 12:57:05;;;;;;;;;;;17.90;49.70;;;;;;5047554;28;20390;-66
2021/04/27 12:59:31;;;;;;;;;;;17.90;49.00;;;;;;5050196;28;19928;-66
2021/04/27 13:01:57;;;;;;;;;;;17.90;49.10;;;;;;5050468;28;19919;-66
2021/04/27 13:04:23;;;;;;;;;;;17.90;49.20;;;;;;5033490;28;19920;-66
2021/04/27 13:06:48;;;;;;;;;;;17.90;49.20;;;;;;5031993;28;20037;-66
2021/04/27 13:09:15;;;;;;;;;;;17.90;49.20;;;;;;5029726;28;20609;-66
2021/04/27 13:11:42;;;;;;;;;;;17.90;49.10;;;;;;5031781;28;20189;-65
2021/04/27 13:14:21;;;;;;;;;;;17.90;49.20;;;;;;5031324;28;19917;-66
2021/04/27 13:16:46;;;;;;;;;;;17.90;49.10;;;;;;5040984;28;20292;-66
2021/04/27 13:19:11;;;;;;;;;;;17.90;49.20;;;;;;5046755;28;19913;-66
2021/04/27 13:21:43;;;;;;;;;;;17.90;49.30;;;;;;5039764;28;20339;-66
2021/04/27 13:24:09;;;;;;;;;;;17.90;49.30;;;;;;5032978;28;19922;-67
2021/04/27 13:26:35;;;;;;;;;;;17.90;49.20;;;;;;5035107;28;19999;-66
2021/04/27 13:29:00;;;;;;;;;;;17.90;49.00;;;;;;5032001;28;19917;-67
2021/04/27 13:31:26;;;;;;;;;;;17.90;49.20;;;;;;5048792;28;19971;-66
2021/04/27 13:33:51;;;;;;;;;;;17.90;49.20;;;;;;5047238;28;20418;-66
2021/04/27 13:36:20;;;;;;;;;;;17.90;49.20;;;;;;5045443;28;20261;-67
2021/04/27 13:38:45;;;;;;;;;;;17.90;49.30;;;;;;5045450;28;19992;-67
2021/04/27 13:41:11;;;;;;;;;;;17.90;49.20;;;;;;5023842;28;20000;-67
2021/04/27 13:43:38;;;;;;;;;;;17.90;49.30;;;;;;5026316;28;19917;-65
2021/04/27 13:46:04;;;;;;;;;;;17.90;49.20;;;;;;5033692;28;20003;-67
2021/04/27 13:48:29;;;;;;;;;;;17.90;49.30;;;;;;5044772;28;19916;-67
2021/04/27 13:50:56;;;;;;;;;;;17.90;49.30;;;;;;5040387;28;19996;-64
2021/04/27 13:53:22;;;;;;;;;;;17.90;49.30;;;;;;5028160;28;20268;-65
2021/04/27 13:55:48;;;;;;;;;;;17.90;49.30;;;;;;5041918;28;19923;-67
2021/04/27 13:58:13;;;;;;;;;;;17.90;49.40;;;;;;5041629;28;20011;-67
2021/04/27 14:00:40;;;;;;;;;;;17.90;49.40;;;;;;5031119;28;19913;-67
2021/04/27 14:03:06;;;;;;;;;;;17.90;49.20;;;;;;5033871;28;19951;-66
2021/04/27 14:05:31;;;;;;;;;;;17.90;49.30;;;;;;5042728;28;19957;-67
2021/04/27 14:07:57;;;;;;;;;;;17.90;49.40;;;;;;5034261;28;19920;-66
2021/04/27 14:10:23;;;;;;;;;;;17.90;49.40;;;;;;5045160;28;19920;-67
2021/04/27 14:12:49;;;;;;;;;;;17.90;49.30;;;;;;5031273;28;19944;-67